Time;durP1;ratioP1;P1;durP2;ratioP2;P2;SDS_P1;SDS_P2;PMS_P1;PMS_P2;Temp;Humidity;BMP_temperature;BMP_pressure;BME280_temperature;BME280_humidity;BME280_pressure;Samples;Min_cycle;Max_cycle;Signal;HPM_P1;HPM_P2
2022/06/12 00:00:43;;;;;;;7.43;3.53;;;19.50;69.60;;;;;;5049737;28;21005;-74
2022/06/12 00:03:13;;;;;;;6.20;3.23;;;19.40;69.70;;;;;;5050856;28;20530;-74
2022/06/12 00:05:45;;;;;;;9.93;4.20;;;19.40;69.80;;;;;;5050514;28;20444;-73
2022/06/12 00:08:16;;;;;;;6.80;3.20;;;19.30;69.90;;;;;;5032927;28;20474;-75
2022/06/12 00:10:47;;;;;;;5.47;3.00;;;19.30;69.90;;;;;;5050290;28;20481;-73
2022/06/12 00:13:19;;;;;;;10.10;3.70;;;19.30;70.00;;;;;;5050456;28;20463;-74
2022/06/12 00:15:48;;;;;;;6.10;3.47;;;19.30;70.00;;;;;;5049765;28;20492;-72
2022/06/12 00:18:17;;;;;;;7.27;3.80;;;19.30;70.00;;;;;;5050391;28;20456;-74
2022/06/12 00:20:45;;;;;;;6.73;3.80;;;19.30;70.10;;;;;;5050029;28;20491;-75
2022/06/12 00:23:17;;;;;;;8.50;4.50;;;19.30;70.00;;;;;;5050290;28;20941;-73
2022/06/12 00:25:45;;;;;;;17.13;4.87;;;19.30;69.90;;;;;;5050188;28;20432;-73
2022/06/12 00:28:12;;;;;;;9.00;3.80;;;19.20;69.90;;;;;;5050601;28;20868;-73
2022/06/12 00:30:41;;;;;;;5.83;3.43;;;19.20;69.90;;;;;;5031427;28;20479;-74
2022/06/12 00:33:10;;;;;;;7.27;4.30;;;19.10;70.00;;;;;;5050005;28;20456;-75
2022/06/12 00:35:38;;;;;;;7.10;3.80;;;19.10;70.10;;;;;;5048602;28;20461;-74
2022/06/12 00:38:06;;;;;;;6.33;4.00;;;19.10;70.10;;;;;;5048837;28;20574;-74
2022/06/12 00:40:35;;;;;;;5.97;3.07;;;19.00;70.00;;;;;;5049597;28;20494;-74
2022/06/12 00:43:04;;;;;;;6.70;3.87;;;18.90;70.00;;;;;;5049778;28;20950;-73
2022/06/12 00:45:51;;;;;;;8.30;4.13;;;18.90;70.00;;;;;;5049097;28;20479;-74
2022/06/12 00:48:24;;;;;;;6.50;3.33;;;18.90;70.00;;;;;;5047660;28;20451;-73
2022/06/12 00:51:01;;;;;;;6.03;4.10;;;18.90;70.10;;;;;;5048644;28;20451;-73
2022/06/12 00:53:33;;;;;;;5.20;3.47;;;18.80;70.00;;;;;;5049809;28;20455;-73
2022/06/12 00:56:07;;;;;;;8.47;5.10;;;18.80;70.00;;;;;;5042700;28;20454;-72
2022/06/12 00:58:40;;;;;;;8.33;3.60;;;18.80;70.20;;;;;;5049419;28;20461;-73
2022/06/12 01:01:12;;;;;;;7.47;3.87;;;18.70;70.20;;;;;;5048901;28;20463;-73
2022/06/12 01:06:36;;;;;;;5.47;3.20;;;18.70;70.20;;;;;;5048962;28;20478;-74
2022/06/12 01:09:14;;;;;;;8.40;3.97;;;18.60;70.20;;;;;;5042669;28;20477;-74
2022/06/12 01:11:45;;;;;;;7.03;3.47;;;18.60;70.20;;;;;;5049042;28;20459;-74
2022/06/12 01:14:17;;;;;;;8.10;4.10;;;18.60;70.20;;;;;;5026455;28;20976;-74
2022/06/12 01:16:46;;;;;;;6.90;4.13;;;18.60;70.10;;;;;;5048570;28;20475;-74
2022/06/12 01:19:22;;;;;;;8.40;5.33;;;18.50;70.10;;;;;;5048788;28;20485;-74
2022/06/12 01:22:05;;;;;;;6.60;3.90;;;18.40;70.10;;;;;;5048656;28;20462;-74
2022/06/12 01:24:59;;;;;;;15.63;4.07;;;18.40;70.10;;;;;;5046733;28;20449;-73
2022/06/12 01:27:57;;;;;;;7.40;3.30;;;18.30;70.20;;;;;;5046227;28;20448;-73
2022/06/12 01:30:34;;;;;;;7.10;4.10;;;18.30;70.40;;;;;;5045311;28;20463;-74
2022/06/12 01:33:10;;;;;;;6.30;3.73;;;18.30;70.40;;;;;;5042156;28;21018;-74
2022/06/12 01:35:47;;;;;;;7.63;4.20;;;18.30;70.20;;;;;;5046910;28;20550;-74
2022/06/12 01:38:19;;;;;;;6.77;4.00;;;18.30;70.20;;;;;;5031124;28;20891;-74
2022/06/12 01:40:56;;;;;;;6.13;3.90;;;18.20;70.20;;;;;;5048313;28;20491;-74
2022/06/12 01:43:35;;;;;;;5.93;3.40;;;18.20;70.20;;;;;;5049227;28;20566;-74
2022/06/12 01:46:09;;;;;;;6.10;3.90;;;18.20;70.20;;;;;;5044482;28;20471;-73
2022/06/12 01:48:43;;;;;;;6.13;3.80;;;18.20;70.20;;;;;;5048641;28;20542;-73
2022/06/12 01:51:19;;;;;;;8.03;4.40;;;18.20;70.20;;;;;;5048506;28;20442;-73
2022/06/12 01:53:55;;;;;;;6.57;3.90;;;18.10;70.10;;;;;;5048697;28;20459;-73
2022/06/12 01:56:27;;;;;;;5.97;3.67;;;18.10;70.20;;;;;;5048707;28;20820;-74
2022/06/12 01:59:02;;;;;;;6.27;3.97;;;18.00;70.30;;;;;;5048213;28;20479;-73
2022/06/12 02:01:38;;;;;;;7.20;3.80;;;17.90;70.40;;;;;;5030049;28;20489;-73
2022/06/12 02:04:13;;;;;;;9.20;5.20;;;17.90;70.50;;;;;;5042351;28;20965;-74
2022/06/12 02:06:46;;;;;;;7.60;4.50;;;17.90;70.50;;;;;;5048142;28;20541;-74
2022/06/12 02:09:19;;;;;;;12.20;4.53;;;17.90;70.60;;;;;;5048560;28;20477;-73
2022/06/12 02:14:42;;;;;;;8.00;4.33;;;17.90;70.60;;;;;;5048556;28;20458;-73
2022/06/12 02:17:15;;;;;;;7.20;4.60;;;17.80;70.60;;;;;;5047763;28;20462;-73
2022/06/12 02:19:44;;;;;;;7.80;4.60;;;17.80;70.50;;;;;;5048140;28;20554;-74
2022/06/12 02:22:17;;;;;;;6.17;4.10;;;17.70;70.60;;;;;;5048115;28;20466;-74
2022/06/12 02:24:49;;;;;;;9.23;4.40;;;17.70;70.70;;;;;;5048327;28;20987;-74
2022/06/12 02:27:21;;;;;;;8.17;3.83;;;17.70;70.60;;;;;;5048629;28;20459;-72
2022/06/12 02:29:54;;;;;;;6.43;4.10;;;17.70;70.70;;;;;;5048135;28;20471;-73
2022/06/12 02:32:30;;;;;;;7.17;4.60;;;17.70;70.80;;;;;;5029660;28;20486;-73
2022/06/12 02:35:02;;;;;;;7.03;4.00;;;17.70;70.80;;;;;;5049917;28;20511;-73
2022/06/12 02:37:36;;;;;;;6.80;4.03;;;17.70;70.80;;;;;;5052108;28;20462;-73
2022/06/12 02:40:10;;;;;;;7.67;4.10;;;17.70;70.80;;;;;;5045568;28;20513;-74
2022/06/12 02:42:43;;;;;;;9.33;4.50;;;17.60;70.80;;;;;;5051822;28;20473;-74
2022/06/12 02:45:15;;;;;;;9.80;3.37;;;17.60;70.80;;;;;;5051548;28;20463;-72
2022/06/12 02:47:47;;;;;;;9.53;3.53;;;17.60;70.80;;;;;;5051220;28;20541;-72
2022/06/12 02:50:21;;;;;;;8.47;4.17;;;17.60;70.70;;;;;;5051827;28;20490;-72
2022/06/12 02:53:02;;;;;;;10.03;3.90;;;17.50;70.60;;;;;;5051610;28;21017;-74
2022/06/12 02:55:38;;;;;;;9.50;3.73;;;17.50;70.60;;;;;;5051982;28;20447;-74
2022/06/12 02:58:17;;;;;;;7.97;4.00;;;17.50;70.60;;;;;;5048237;28;20453;-72
2022/06/12 03:00:50;;;;;;;7.10;4.30;;;17.40;70.40;;;;;;5050868;28;20474;-74
2022/06/12 03:03:27;;;;;;;12.17;3.87;;;17.30;70.60;;;;;;5051700;28;20525;-74
2022/06/12 03:05:58;;;;;;;7.13;4.03;;;17.30;70.60;;;;;;5051311;28;20451;-73
2022/06/12 03:08:30;;;;;;;8.77;4.43;;;17.30;70.70;;;;;;5033623;28;20459;-73
2022/06/12 03:11:02;;;;;;;6.20;3.60;;;17.30;70.90;;;;;;5043180;28;20455;-74
2022/06/12 03:13:32;;;;;;;8.90;4.93;;;17.30;70.90;;;;;;5049774;28;20505;-73
2022/06/12 03:16:12;;;;;;;8.10;4.50;;;17.30;70.90;;;;;;5031775;28;21019;-72
2022/06/12 03:18:46;;;;;;;7.20;4.10;;;17.40;70.80;;;;;;5050448;28;20462;-73
2022/06/12 03:21:25;;;;;;;7.77;4.70;;;17.30;70.80;;;;;;5050950;28;21019;-73
2022/06/12 03:24:06;;;;;;;11.50;4.30;;;17.30;70.70;;;;;;5032066;28;20466;-73
2022/06/12 03:26:42;;;;;;;11.40;4.30;;;17.30;70.70;;;;;;5050129;28;20447;-73
2022/06/12 03:29:24;;;;;;;6.77;4.30;;;17.20;70.70;;;;;;5048840;28;20474;-73
2022/06/12 03:32:00;;;;;;;9.50;4.10;;;17.20;70.70;;;;;;5048120;28;20467;-72
2022/06/12 03:34:36;;;;;;;13.53;4.50;;;17.20;70.70;;;;;;5048673;28;20830;-72
2022/06/12 03:37:10;;;;;;;7.10;4.47;;;17.20;70.70;;;;;;5048852;28;20485;-73
2022/06/12 03:39:44;;;;;;;6.17;3.83;;;17.20;70.70;;;;;;5050515;28;21054;-73
2022/06/12 03:42:19;;;;;;;7.83;3.97;;;17.20;70.70;;;;;;5046581;28;20479;-73
2022/06/12 03:44:56;;;;;;;8.60;4.23;;;17.10;70.70;;;;;;5049854;28;20466;-73
2022/06/12 03:47:30;;;;;;;9.37;4.30;;;17.10;70.70;;;;;;5046413;28;20621;-74
2022/06/12 03:50:05;;;;;;;8.30;4.23;;;17.10;70.80;;;;;;5050475;28;20553;-74
2022/06/12 03:52:39;;;;;;;7.03;4.40;;;17.10;70.80;;;;;;5050372;28;20469;-74
2022/06/12 03:55:11;;;;;;;7.43;4.30;;;17.10;70.70;;;;;;5050805;28;20466;-73
2022/06/12 03:57:52;;;;;;;7.93;4.23;;;17.10;70.80;;;;;;5050476;28;20457;-72
2022/06/12 04:00:25;;;;;;;7.87;5.00;;;17.10;70.80;;;;;;5045774;28;20561;-74
2022/06/12 04:02:57;;;;;;;12.20;6.17;;;17.10;70.80;;;;;;5050459;28;20452;-72
2022/06/12 04:05:31;;;;;;;13.40;5.00;;;17.10;70.80;;;;;;5046945;28;20482;-72
2022/06/12 04:08:01;;;;;;;9.77;4.90;;;17.20;70.90;;;;;;5044716;28;20466;-72
2022/06/12 04:10:33;;;;;;;10.47;4.90;;;17.20;70.80;;;;;;5047360;28;20549;-73
2022/06/12 04:13:03;;;;;;;11.50;4.53;;;17.20;70.90;;;;;;5043790;28;21172;-73
2022/06/12 04:15:36;;;;;;;8.80;3.93;;;17.20;71.00;;;;;;5049612;28;20480;-74
2022/06/12 04:18:05;;;;;;;8.97;3.73;;;17.30;71.20;;;;;;5043890;28;20455;-73
2022/06/12 04:20:46;;;;;;;8.83;4.60;;;17.40;71.20;;;;;;5050005;28;20478;-74
2022/06/12 04:23:21;;;;;;;7.70;4.33;;;17.50;71.30;;;;;;5045356;28;20443;-72
2022/06/12 04:25:53;;;;;;;10.30;4.77;;;17.50;71.10;;;;;;5031905;28;21274;-72
2022/06/12 04:28:32;;;;;;;12.07;4.13;;;17.60;71.20;;;;;;5050224;28;20459;-73
2022/06/12 04:31:01;;;;;;;10.57;4.60;;;17.70;71.30;;;;;;5042558;28;20499;-72
2022/06/12 04:33:47;;;;;;;9.53;4.40;;;17.80;71.40;;;;;;5050180;28;20451;-74
2022/06/12 04:36:16;;;;;;;8.50;4.30;;;17.90;71.60;;;;;;5045387;28;20456;-73
2022/06/12 04:38:45;;;;;;;8.77;4.50;;;18.10;71.60;;;;;;5049601;28;20458;-74
2022/06/12 04:41:21;;;;;;;6.80;4.10;;;18.30;71.70;;;;;;5049816;28;20840;-72
2022/06/12 04:43:49;;;;;;;6.60;4.10;;;18.40;71.60;;;;;;5049537;28;20449;-74
2022/06/12 04:46:19;;;;;;;8.50;4.47;;;18.60;71.40;;;;;;5049333;28;21045;-74
2022/06/12 04:48:50;;;;;;;12.33;4.93;;;18.80;71.30;;;;;;5049233;28;20443;-74
2022/06/12 04:51:19;;;;;;;9.60;4.20;;;18.90;71.30;;;;;;5049413;28;20452;-74
2022/06/12 04:53:49;;;;;;;8.83;4.23;;;19.10;71.10;;;;;;5049294;28;20447;-73
2022/06/12 04:56:20;;;;;;;9.20;4.93;;;19.20;71.10;;;;;;5052379;28;20456;-74
2022/06/12 04:58:49;;;;;;;7.87;4.30;;;19.40;71.10;;;;;;5031616;28;20655;-74
2022/06/12 05:01:17;;;;;;;10.50;4.90;;;19.50;70.90;;;;;;5048752;28;20486;-74
2022/06/12 05:03:46;;;;;;;10.13;4.53;;;19.70;70.80;;;;;;5031054;28;20457;-73
2022/06/12 05:06:15;;;;;;;8.47;4.43;;;19.80;70.80;;;;;;5049580;28;20469;-74
2022/06/12 05:08:46;;;;;;;12.33;4.93;;;20.00;70.80;;;;;;5048406;28;20448;-73
2022/06/12 05:11:14;;;;;;;7.80;4.13;;;20.10;70.70;;;;;;5047451;28;20468;-73
2022/06/12 05:13:42;;;;;;;7.10;4.50;;;20.20;70.60;;;;;;5048198;28;20462;-74
2022/06/12 05:16:18;;;;;;;13.83;4.90;;;20.40;70.60;;;;;;5030910;28;20468;-73
2022/06/12 05:18:47;;;;;;;7.90;4.27;;;20.50;70.70;;;;;;5048772;28;20483;-74
2022/06/12 05:21:15;;;;;;;10.73;5.27;;;20.70;70.70;;;;;;5048909;28;20476;-74
2022/06/12 05:23:43;;;;;;;8.43;4.97;;;20.90;70.80;;;;;;5040955;28;20454;-74
2022/06/12 05:26:15;;;;;;;7.37;4.57;;;21.00;70.60;;;;;;5049247;28;20445;-74
2022/06/12 05:28:44;;;;;;;6.57;4.10;;;21.20;70.60;;;;;;5048745;28;20445;-75
2022/06/12 05:31:12;;;;;;;7.33;4.60;;;21.30;70.60;;;;;;5057583;28;20464;-74
2022/06/12 05:33:40;;;;;;;6.87;4.73;;;21.50;70.80;;;;;;5068603;28;20507;-72
2022/06/12 05:36:08;;;;;;;6.70;3.90;;;21.70;71.30;;;;;;5069294;28;21187;-73
2022/06/12 05:38:36;;;;;;;6.27;4.60;;;22.10;71.80;;;;;;5062181;28;20454;-72
2022/06/12 05:41:04;;;;;;;8.80;4.10;;;22.70;71.40;;;;;;5060603;28;20942;-75
2022/06/12 05:43:34;;;;;;;9.73;4.17;;;23.70;69.70;;;;;;5050742;28;21018;-72
2022/06/12 05:46:02;;;;;;;6.30;4.10;;;24.80;67.40;;;;;;5061854;28;20473;-75
2022/06/12 05:48:30;;;;;;;12.03;3.80;;;25.80;65.60;;;;;;5068727;28;20951;-76
2022/06/12 05:51:01;;;;;;;6.60;4.30;;;26.70;64.20;;;;;;5067421;28;20821;-75
2022/06/12 05:53:31;;;;;;;7.70;3.83;;;27.60;62.90;;;;;;5067171;28;20460;-76
2022/06/12 05:56:00;;;;;;;7.20;3.77;;;28.50;61.70;;;;;;5066524;28;20449;-75
2022/06/12 05:58:29;;;;;;;7.77;3.47;;;29.20;60.60;;;;;;5068986;28;20510;-75
2022/06/12 06:00:59;;;;;;;6.53;3.60;;;29.90;59.50;;;;;;5067722;28;20884;-75
2022/06/12 06:03:27;;;;;;;8.83;4.13;;;30.50;58.40;;;;;;5068130;28;20484;-75
2022/06/12 06:05:55;;;;;;;6.97;4.23;;;30.90;57.50;;;;;;5054667;28;20451;-74
2022/06/12 06:08:23;;;;;;;7.10;4.00;;;31.10;56.90;;;;;;5067710;28;20462;-74
2022/06/12 06:10:51;;;;;;;5.70;3.17;;;30.90;56.50;;;;;;5071714;28;20474;-74
2022/06/12 06:13:20;;;;;;;6.47;3.30;;;30.50;56.40;;;;;;5072737;28;20453;-73
2022/06/12 06:15:50;;;;;;;5.23;3.77;;;30.00;56.90;;;;;;5071866;28;20525;-74
2022/06/12 06:18:21;;;;;;;5.90;3.40;;;29.50;56.30;;;;;;5072695;28;20460;-74
2022/06/12 06:20:49;;;;;;;16.13;4.50;;;28.80;56.80;;;;;;5070972;28;20476;-74
2022/06/12 06:23:17;;;;;;;6.77;4.10;;;28.10;57.50;;;;;;5072487;28;20847;-74
2022/06/12 06:25:45;;;;;;;8.40;3.87;;;27.40;58.20;;;;;;5071380;28;20473;-73
2022/06/12 06:28:14;;;;;;;7.33;4.20;;;26.90;58.90;;;;;;5072625;28;20453;-75
2022/06/12 06:30:43;;;;;;;6.00;3.93;;;26.50;59.60;;;;;;5069921;28;20566;-74
2022/06/12 06:33:11;;;;;;;6.57;4.07;;;26.10;59.90;;;;;;5072247;28;21013;-74
2022/06/12 06:35:41;;;;;;;6.00;3.80;;;25.70;60.20;;;;;;5070469;28;20453;-74
2022/06/12 06:38:09;;;;;;;8.77;3.90;;;25.30;60.80;;;;;;5072628;28;20454;-74
2022/06/12 06:40:38;;;;;;;6.80;3.80;;;25.00;61.30;;;;;;5087648;28;20487;-74
2022/06/12 06:43:07;;;;;;;6.60;3.67;;;24.70;61.80;;;;;;5071997;28;21155;-74
2022/06/12 06:48:22;;;;;;;10.33;4.47;;;24.40;62.50;;;;;;5068090;28;20445;-73
2022/06/12 06:50:53;;;;;;;7.30;4.00;;;24.20;62.90;;;;;;5071797;28;20478;-74
2022/06/12 06:53:21;;;;;;;6.50;3.70;;;24.10;63.20;;;;;;5072130;28;20667;-74
2022/06/12 06:55:49;;;;;;;7.23;4.67;;;23.90;63.70;;;;;;5071768;28;20455;-74
2022/06/12 06:58:22;;;;;;;7.17;3.57;;;23.80;63.90;;;;;;5087609;28;20458;-74
2022/06/12 07:00:52;;;;;;;5.93;3.30;;;23.70;64.20;;;;;;5071042;28;20477;-74
2022/06/12 07:03:21;;;;;;;8.40;4.90;;;23.60;64.40;;;;;;5072008;28;20483;-74
2022/06/12 07:05:51;;;;;;;7.00;4.67;;;23.60;64.70;;;;;;5071468;28;20447;-73
2022/06/12 07:08:22;;;;;;;6.40;4.27;;;23.50;65.00;;;;;;5087525;28;20465;-73
2022/06/12 07:10:51;;;;;;;7.70;4.87;;;23.30;65.20;;;;;;5071225;28;20481;-74
2022/06/12 07:13:21;;;;;;;9.43;4.53;;;23.30;65.40;;;;;;5071929;28;20459;-74
2022/06/12 07:15:49;;;;;;;6.00;4.20;;;23.20;65.60;;;;;;5070868;28;20470;-74
2022/06/12 07:18:18;;;;;;;7.57;4.60;;;23.20;65.90;;;;;;5071555;28;20451;-74
2022/06/12 07:20:49;;;;;;;8.07;4.50;;;23.10;66.20;;;;;;5070593;28;20477;-74
2022/06/12 07:23:20;;;;;;;8.70;5.00;;;23.10;66.30;;;;;;5071276;28;20912;-74
2022/06/12 07:25:51;;;;;;;7.13;4.60;;;23.00;66.80;;;;;;5071406;28;20456;-73
2022/06/12 07:28:20;;;;;;;7.60;4.47;;;23.00;66.80;;;;;;5071537;28;20469;-74
2022/06/12 07:30:50;;;;;;;8.80;3.90;;;23.00;67.00;;;;;;5070654;28;20463;-74
2022/06/12 07:33:18;;;;;;;7.57;3.67;;;23.00;67.20;;;;;;5071239;28;20831;-75
2022/06/12 07:35:48;;;;;;;6.93;4.50;;;23.10;67.40;;;;;;5071013;28;21165;-74
2022/06/12 07:38:21;;;;;;;6.90;4.07;;;23.20;67.50;;;;;;5071410;28;20465;-73
2022/06/12 07:40:52;;;;;;;7.67;3.93;;;23.30;67.60;;;;;;5070897;28;20474;-74
2022/06/12 07:43:20;;;;;;;6.67;4.10;;;23.30;67.70;;;;;;5071406;28;20474;-75
2022/06/12 07:45:48;;;;;;;8.10;4.10;;;23.40;67.90;;;;;;5070504;28;20458;-73
2022/06/12 07:48:17;;;;;;;11.40;4.70;;;23.40;67.90;;;;;;5070824;28;20690;-74
2022/06/12 07:50:47;;;;;;;10.23;3.50;;;23.50;67.90;;;;;;5070973;28;20470;-74
2022/06/12 07:53:17;;;;;;;5.57;3.73;;;23.50;67.90;;;;;;5086400;28;20461;-72
2022/06/12 07:55:47;;;;;;;7.63;3.70;;;23.60;67.90;;;;;;5070848;28;20455;-74
2022/06/12 07:58:15;;;;;;;7.23;3.80;;;23.60;67.90;;;;;;5070822;28;20447;-74
2022/06/12 08:00:50;;;;;;;6.30;3.70;;;23.70;67.80;;;;;;5070082;28;20500;-75
2022/06/12 08:03:18;;;;;;;7.70;3.63;;;23.80;67.70;;;;;;5070861;28;20478;-74
2022/06/12 08:05:46;;;;;;;5.47;4.17;;;23.80;67.70;;;;;;5069415;28;20455;-74
2022/06/12 08:08:14;;;;;;;7.63;3.53;;;23.90;67.70;;;;;;5070635;28;20825;-75
2022/06/12 08:10:42;;;;;;;6.30;3.57;;;23.90;67.70;;;;;;5070591;28;20470;-74
2022/06/12 08:13:12;;;;;;;5.50;2.97;;;23.90;67.40;;;;;;5070277;28;20446;-73
2022/06/12 08:15:44;;;;;;;5.43;3.17;;;23.90;67.30;;;;;;5070036;28;20475;-74
2022/06/12 08:18:13;;;;;;;5.63;3.43;;;24.00;67.20;;;;;;5070451;28;20871;-75
2022/06/12 08:20:45;;;;;;;10.30;2.93;;;24.00;67.20;;;;;;5068805;28;20491;-73
2022/06/12 08:23:27;;;;;;;5.13;2.30;;;24.00;67.00;;;;;;5070084;28;20474;-73
2022/06/12 08:25:56;;;;;;;5.13;2.47;;;23.90;67.00;;;;;;5069702;28;20451;-73
2022/06/12 08:28:27;;;;;;;5.00;2.67;;;23.90;66.70;;;;;;5070287;28;20448;-73
2022/06/12 08:30:56;;;;;;;4.80;2.70;;;24.00;66.30;;;;;;5069119;28;21058;-74
2022/06/12 08:33:25;;;;;;;6.73;2.90;;;23.90;66.00;;;;;;5069022;28;20451;-74
2022/06/12 08:35:53;;;;;;;4.57;2.17;;;23.90;65.90;;;;;;5070460;28;20459;-73
2022/06/12 08:38:21;;;;;;;5.20;2.50;;;23.90;65.70;;;;;;5070106;28;20457;-74
2022/06/12 08:40:56;;;;;;;6.60;3.03;;;23.90;65.70;;;;;;5069845;28;20478;-74
2022/06/12 08:43:32;;;;;;;6.43;3.07;;;24.00;65.50;;;;;;5069894;28;20823;-74
2022/06/12 08:46:05;;;;;;;6.40;3.30;;;24.00;65.30;;;;;;5068361;28;20468;-75
2022/06/12 08:48:44;;;;;;;9.30;2.90;;;24.00;65.20;;;;;;5069748;28;20459;-74
2022/06/12 08:51:19;;;;;;;7.33;2.67;;;24.10;65.10;;;;;;5064970;28;20451;-74
2022/06/12 08:53:59;;;;;;;6.70;2.83;;;24.10;65.10;;;;;;5069631;28;20455;-74
2022/06/12 08:56:33;;;;;;;7.80;2.70;;;24.20;65.20;;;;;;5069536;28;20454;-74
2022/06/12 08:59:09;;;;;;;6.23;2.73;;;24.20;65.00;;;;;;5078329;28;20514;-74
2022/06/12 09:01:41;;;;;;;6.77;2.60;;;24.20;65.00;;;;;;5068777;28;20831;-74
2022/06/12 09:04:11;;;;;;;7.20;2.70;;;24.30;64.90;;;;;;5063924;28;20501;-74
2022/06/12 09:06:49;;;;;;;8.23;2.97;;;24.30;64.80;;;;;;5069561;28;20462;-74
2022/06/12 09:09:23;;;;;;;4.73;2.30;;;24.30;64.80;;;;;;5064957;28;20550;-74
2022/06/12 09:11:55;;;;;;;5.83;2.50;;;24.40;64.70;;;;;;5068949;28;20452;-74
2022/06/12 09:14:41;;;;;;;4.00;2.10;;;24.40;64.50;;;;;;5069423;28;20443;-74
2022/06/12 09:17:18;;;;;;;5.80;2.90;;;24.50;64.30;;;;;;5064945;28;20477;-74
2022/06/12 09:19:57;;;;;;;6.20;2.13;;;24.50;64.30;;;;;;5069180;28;20471;-74
2022/06/12 09:22:35;;;;;;;5.63;2.20;;;24.60;64.30;;;;;;5068851;28;20535;-73
2022/06/12 09:25:10;;;;;;;4.63;2.13;;;24.60;64.30;;;;;;5062698;28;20483;-73
2022/06/12 09:27:46;;;;;;;7.40;2.40;;;24.70;64.20;;;;;;5068800;28;20970;-74
2022/06/12 09:30:19;;;;;;;6.40;3.10;;;24.70;64.00;;;;;;5068564;28;20478;-74
2022/06/12 09:32:57;;;;;;;6.70;2.40;;;24.80;63.90;;;;;;5068746;28;20453;-74
2022/06/12 09:35:41;;;;;;;6.07;2.43;;;24.90;63.70;;;;;;5069235;28;20526;-75
2022/06/12 09:38:19;;;;;;;13.43;2.40;;;24.90;62.80;;;;;;5062118;28;20461;-74
2022/06/12 09:41:02;;;;;;;7.23;2.70;;;25.00;63.50;;;;;;5068743;28;20476;-74
2022/06/12 09:43:38;;;;;;;4.70;2.30;;;25.10;63.40;;;;;;5068519;28;20456;-74
2022/06/12 09:46:29;;;;;;;4.80;2.20;;;25.10;63.20;;;;;;5080212;28;20474;-74
2022/06/12 09:49:02;;;;;;;5.90;2.70;;;25.20;62.90;;;;;;5060563;28;20486;-75
2022/06/12 09:51:47;;;;;;;6.70;2.80;;;25.20;63.00;;;;;;5068388;28;20467;-74
2022/06/12 09:54:38;;;;;;;5.40;2.20;;;25.20;62.90;;;;;;5064169;28;20446;-74
2022/06/12 09:57:17;;;;;;;6.60;2.47;;;25.30;62.40;;;;;;5063077;28;20448;-73
2022/06/12 09:59:50;;;;;;;7.27;3.03;;;25.30;62.70;;;;;;5068521;28;20480;-74
2022/06/12 10:02:28;;;;;;;5.70;3.27;;;25.30;62.70;;;;;;5067018;28;20475;-74
2022/06/12 10:05:02;;;;;;;4.37;2.37;;;25.30;62.70;;;;;;5068396;28;20480;-74
2022/06/12 10:07:37;;;;;;;5.33;2.20;;;25.30;62.30;;;;;;5068852;28;20821;-73
2022/06/12 10:10:13;;;;;;;5.57;2.60;;;25.30;62.30;;;;;;5065680;28;20547;-74
2022/06/12 10:12:44;;;;;;;5.27;2.67;;;25.30;62.20;;;;;;5068198;28;20449;-73
2022/06/12 10:15:16;;;;;;;6.50;2.70;;;25.20;62.20;;;;;;5068531;28;20864;-74
2022/06/12 10:17:51;;;;;;;3.93;1.80;;;25.20;62.20;;;;;;5068454;28;20444;-74
2022/06/12 10:20:24;;;;;;;5.40;2.30;;;25.20;62.30;;;;;;5084123;28;20480;-74
2022/06/12 10:22:55;;;;;;;6.53;2.40;;;25.20;61.70;;;;;;5068588;28;20509;-74
2022/06/12 10:25:27;;;;;;;7.90;2.70;;;25.20;61.80;;;;;;5068507;28;20496;-74
2022/06/12 10:27:59;;;;;;;6.60;2.10;;;25.20;61.80;;;;;;5066701;28;20500;-74
2022/06/12 10:30:33;;;;;;;5.80;2.30;;;25.20;61.80;;;;;;5067801;28;20468;-75
2022/06/12 10:33:18;;;;;;;6.03;2.87;;;25.30;61.80;;;;;;5061694;28;20451;-74
2022/06/12 10:35:48;;;;;;;5.57;2.77;;;25.30;61.70;;;;;;5067469;28;20449;-74
2022/06/12 10:38:16;;;;;;;5.03;2.33;;;25.40;61.60;;;;;;5068934;28;20471;-74
2022/06/12 10:40:53;;;;;;;6.57;2.40;;;25.40;61.60;;;;;;5067739;28;20912;-74
2022/06/12 10:43:28;;;;;;;4.70;2.37;;;25.40;61.40;;;;;;5068571;28;20441;-74
2022/06/12 10:46:00;;;;;;;5.67;2.53;;;25.40;61.50;;;;;;5067469;28;20476;-74
2022/06/12 10:48:34;;;;;;;6.70;2.80;;;25.50;61.60;;;;;;5068192;28;20442;-74
2022/06/12 10:51:05;;;;;;;5.10;2.87;;;25.50;61.70;;;;;;5068245;28;20452;-74
2022/06/12 10:53:35;;;;;;;5.40;2.20;;;25.60;61.70;;;;;;5068253;28;20821;-74
2022/06/12 10:56:16;;;;;;;5.00;2.67;;;25.60;61.50;;;;;;5063825;28;20446;-75
2022/06/12 10:59:09;;;;;;;6.87;3.27;;;25.60;61.70;;;;;;5070738;28;20441;-75
2022/06/12 11:01:44;;;;;;;6.40;3.27;;;25.60;61.70;;;;;;5071056;28;20472;-74
2022/06/12 11:04:24;;;;;;;4.53;2.70;;;25.70;61.70;;;;;;5072285;28;20449;-74
2022/06/12 11:07:03;;;;;;;6.10;3.53;;;25.70;61.60;;;;;;5070782;28;20457;-73
2022/06/12 11:09:42;;;;;;;5.80;3.47;;;25.70;61.50;;;;;;5071508;28;20981;-74
2022/06/12 11:12:28;;;;;;;5.17;2.80;;;25.70;61.60;;;;;;5066306;28;20453;-74
2022/06/12 11:15:09;;;;;;;5.50;2.83;;;25.60;61.40;;;;;;5072009;28;20446;-74
2022/06/12 11:17:48;;;;;;;6.97;2.83;;;25.60;61.60;;;;;;5051082;28;20465;-74
2022/06/12 11:20:27;;;;;;;5.90;3.00;;;25.60;61.80;;;;;;5033763;28;20477;-73
2022/06/12 11:23:17;;;;;;;5.80;3.53;;;25.70;62.00;;;;;;5050858;28;20507;-75
2022/06/12 11:26:19;;;;;;;7.07;2.70;;;25.80;62.00;;;;;;5051500;28;21010;-74
2022/06/12 11:28:59;;;;;;;5.80;3.13;;;25.80;61.90;;;;;;5051230;28;20470;-74
2022/06/12 11:31:44;;;;;;;5.47;2.70;;;25.90;62.00;;;;;;5059867;28;20480;-73
2022/06/12 11:34:36;;;;;;;11.90;3.23;;;25.90;62.10;;;;;;5063522;28;20545;-75
2022/06/12 11:37:24;;;;;;;4.53;2.67;;;26.00;62.10;;;;;;5068826;28;20457;-73
2022/06/12 11:40:01;;;;;;;5.17;3.07;;;26.00;61.70;;;;;;5044853;28;20896;-76
2022/06/12 11:42:42;;;;;;;8.87;3.97;;;26.10;61.70;;;;;;5066687;28;20805;-74
2022/06/12 11:45:41;;;;;;;9.97;3.20;;;26.10;61.60;;;;;;5035156;28;20460;-74
2022/06/12 11:48:29;;;;;;;5.60;3.00;;;26.00;61.40;;;;;;5049489;28;20450;-74
2022/06/12 11:51:08;;;;;;;5.20;3.20;;;26.00;61.60;;;;;;5050272;28;20482;-74
2022/06/12 11:53:51;;;;;;;4.70;2.50;;;26.10;61.80;;;;;;5048749;28;20444;-74
2022/06/12 11:56:30;;;;;;;5.87;3.00;;;26.10;61.80;;;;;;5051045;28;20462;-75
2022/06/12 11:59:11;;;;;;;5.87;3.40;;;26.00;61.50;;;;;;5050602;28;20473;-75
2022/06/12 12:01:48;;;;;;;4.73;2.50;;;26.00;61.50;;;;;;5031977;28;20992;-73
2022/06/12 12:04:32;;;;;;;6.00;3.03;;;26.00;61.50;;;;;;5051202;28;20821;-74
2022/06/12 12:07:21;;;;;;;5.77;3.50;;;26.00;61.20;;;;;;5050278;28;21065;-74
2022/06/12 12:10:05;;;;;;;6.53;3.50;;;25.90;61.30;;;;;;5050587;28;20865;-75
2022/06/12 12:12:37;;;;;;;5.33;3.07;;;25.90;61.20;;;;;;5050860;28;20461;-74
2022/06/12 12:15:13;;;;;;;5.93;2.77;;;25.90;61.50;;;;;;5046708;28;20474;-73
2022/06/12 12:17:44;;;;;;;5.03;2.60;;;25.90;61.30;;;;;;5070065;28;21176;-74
2022/06/12 12:20:19;;;;;;;10.23;3.80;;;25.90;61.30;;;;;;5070778;28;20472;-75
2022/06/12 12:22:51;;;;;;;6.07;3.30;;;25.90;61.50;;;;;;5051932;28;20487;-74
2022/06/12 12:25:31;;;;;;;5.43;2.90;;;25.90;61.80;;;;;;5070375;28;20534;-74
2022/06/12 12:28:04;;;;;;;5.37;2.80;;;26.00;61.70;;;;;;5063095;28;21185;-75
2022/06/12 12:30:34;;;;;;;5.37;2.50;;;26.10;61.50;;;;;;5069936;28;20550;-74
2022/06/12 12:33:04;;;;;;;5.70;2.97;;;26.10;61.30;;;;;;5063297;28;20442;-74
2022/06/12 12:41:15;;;;;;;6.00;2.87;;;26.20;61.10;;;;;;5064089;28;20453;-74
2022/06/12 12:43:51;;;;;;;7.63;2.70;;;26.30;61.20;;;;;;5069863;28;20457;-74
2022/06/12 12:46:22;;;;;;;6.40;2.73;;;26.30;61.10;;;;;;5064903;28;21199;-74
2022/06/12 12:48:54;;;;;;;9.90;3.00;;;26.30;61.00;;;;;;5069356;28;20961;-74
2022/06/12 12:51:30;;;;;;;6.03;2.70;;;26.30;60.80;;;;;;5085284;28;20900;-74
2022/06/12 12:54:13;;;;;;;5.30;2.70;;;26.30;60.90;;;;;;5069471;28;20442;-74
2022/06/12 12:56:54;;;;;;;5.87;2.77;;;26.30;60.90;;;;;;5069602;28;20511;-75
2022/06/12 12:59:34;;;;;;;6.43;2.80;;;26.40;61.00;;;;;;5070048;28;20471;-74
2022/06/12 13:02:17;;;;;;;5.97;2.90;;;26.40;61.00;;;;;;5062478;28;20469;-74
2022/06/12 13:04:45;;;;;;;4.73;2.70;;;26.50;60.80;;;;;;5069721;28;20453;-74
2022/06/12 13:07:26;;;;;;;6.10;2.73;;;26.50;61.00;;;;;;5068295;28;20472;-74
2022/06/12 13:10:28;;;;;;;5.87;3.20;;;26.60;61.00;;;;;;5068537;28;20483;-74
2022/06/12 13:13:30;;;;;;;4.70;2.30;;;26.60;60.60;;;;;;5068668;28;20464;-74
2022/06/12 13:16:05;;;;;;;7.17;2.77;;;26.60;59.70;;;;;;5068933;28;20461;-73
2022/06/12 13:18:59;;;;;;;5.30;2.87;;;26.60;60.40;;;;;;5068870;28;20454;-74
2022/06/12 13:21:36;;;;;;;5.17;2.57;;;26.60;60.20;;;;;;5068155;28;20443;-74
2022/06/12 13:24:27;;;;;;;6.83;2.60;;;26.70;60.00;;;;;;5061530;28;20455;-75
2022/06/12 13:26:56;;;;;;;6.80;2.60;;;26.70;59.60;;;;;;5068641;28;20498;-75
2022/06/12 13:29:27;;;;;;;8.07;3.10;;;26.70;59.50;;;;;;5069741;28;20471;-74
2022/06/12 13:31:57;;;;;;;6.20;2.53;;;26.80;59.60;;;;;;5069106;28;20466;-75
2022/06/12 13:34:25;;;;;;;4.93;2.70;;;26.80;59.30;;;;;;5070032;28;20947;-75